createdAt,value
2024-01-16T00:02:39.784Z,70.57
2024-01-16T00:05:25.733Z,70.27
2024-01-16T00:08:11.783Z,70.30
2024-01-16T00:10:57.608Z,70.07
2024-01-16T00:13:43.024Z,70.10
2024-01-16T00:16:28.434Z,70.20
2024-01-16T00:19:14.876Z,69.96
2024-01-16T00:22:01.652Z,69.66
2024-01-16T00:24:47.790Z,69.68
2024-01-16T00:27:33.670Z,69.77
2024-01-16T00:30:19.815Z,69.66
2024-01-16T00:33:08.367Z,70.09
2024-01-16T00:35:53.952Z,69.75
2024-01-16T00:38:39.301Z,69.36
2024-01-16T00:41:25.092Z,69.46
2024-01-16T00:44:12.126Z,69.68
2024-01-16T00:46:57.904Z,69.40
2024-01-16T00:49:43.532Z,69.51
2024-01-16T00:52:29.173Z,69.81
2024-01-16T00:55:14.900Z,68.99
2024-01-16T00:58:00.353Z,69.05
2024-01-16T01:00:45.919Z,69.27
2024-01-16T01:03:31.581Z,69.62
2024-01-16T01:06:20.329Z,69.32
2024-01-16T01:09:06.194Z,69.03
2024-01-16T01:11:51.656Z,69.10
2024-01-16T01:14:37.349Z,69.24
2024-01-16T01:17:26.048Z,69.37
2024-01-16T01:20:13.917Z,69.26
2024-01-16T01:23:02.687Z,69.65
2024-01-16T01:25:48.416Z,69.50
2024-01-16T01:28:33.974Z,69.54
2024-01-16T01:31:19.625Z,69.25
2024-01-16T01:34:05.853Z,69.29
2024-01-16T01:36:51.509Z,69.33
2024-01-16T01:39:36.993Z,69.83
2024-01-16T01:42:22.598Z,69.74
2024-01-16T01:45:08.633Z,69.39
2024-01-16T01:47:54.209Z,69.75
2024-01-16T01:50:40.019Z,69.35
2024-01-16T01:53:25.992Z,69.48
2024-01-16T01:56:16.525Z,69.92
2024-01-16T01:59:04.063Z,69.77
2024-01-16T02:01:53.920Z,69.68
2024-01-16T02:04:42.019Z,70.20
2024-01-16T02:07:28.039Z,70.04
2024-01-16T02:10:13.586Z,70.35
2024-01-16T02:12:59.456Z,70.10
2024-01-16T02:15:45.441Z,70.13
2024-01-16T02:18:31.380Z,70.09
2024-01-16T02:21:20.177Z,70.17
2024-01-16T02:24:10.818Z,69.79
2024-01-16T02:26:57.327Z,69.70
2024-01-16T02:29:44.439Z,69.97
2024-01-16T02:32:30.449Z,69.97
2024-01-16T02:35:16.782Z,70.26
2024-01-16T02:38:02.747Z,70.23
2024-01-16T02:40:50.610Z,70.15
2024-01-16T02:43:36.151Z,70.46
2024-01-16T02:46:21.528Z,70.33
2024-01-16T02:49:08.581Z,70.08
2024-01-16T02:51:54.274Z,69.99
2024-01-16T02:54:42.187Z,70.48
2024-01-16T02:57:27.666Z,70.37
2024-01-16T03:00:13.488Z,70.39
2024-01-16T03:02:59.016Z,70.31
2024-01-16T03:05:44.733Z,70.53
2024-01-16T03:08:30.760Z,70.39
2024-01-16T03:11:16.196Z,70.07
2024-01-16T03:14:01.901Z,70.58
2024-01-16T03:16:47.309Z,70.55
2024-01-16T03:19:32.966Z,70.32
2024-01-16T03:22:19.620Z,70.49
2024-01-16T03:25:05.406Z,70.44
2024-01-16T03:27:51.117Z,70.57
2024-01-16T03:30:36.796Z,70.49
2024-01-16T03:33:22.955Z,70.82
2024-01-16T03:36:10.757Z,70.47
2024-01-16T03:39:01.007Z,70.78
2024-01-16T03:41:46.470Z,70.58
2024-01-16T03:44:32.040Z,70.55
2024-01-16T03:47:17.626Z,70.90
2024-01-16T03:50:03.640Z,70.95
2024-01-16T03:52:49.336Z,70.85
2024-01-16T03:55:35.393Z,71.15
2024-01-16T03:58:22.041Z,70.78
2024-01-16T04:01:08.389Z,70.96
2024-01-16T04:03:53.978Z,70.45
2024-01-16T04:06:39.655Z,70.55
2024-01-16T04:09:25.062Z,70.95
2024-01-16T04:12:11.438Z,70.88
2024-01-16T04:14:57.018Z,70.65
2024-01-16T04:17:42.552Z,70.78
2024-01-16T04:20:28.091Z,70.89
2024-01-16T04:23:13.653Z,70.98
2024-01-16T04:25:59.435Z,70.70
2024-01-16T04:28:45.298Z,71.29
2024-01-16T04:31:30.658Z,71.04
2024-01-16T04:34:16.228Z,71.04
2024-01-16T04:37:01.772Z,71.09
2024-01-16T04:39:47.184Z,70.86
2024-01-16T04:42:33.765Z,70.73
2024-01-16T04:45:19.293Z,70.68
2024-01-16T04:48:05.367Z,71.07
2024-01-16T04:50:51.348Z,70.94
2024-01-16T04:53:37.338Z,70.75
2024-01-16T04:56:23.183Z,70.77
2024-01-16T04:59:08.779Z,70.51
2024-01-16T05:01:54.768Z,70.46
2024-01-16T05:04:40.200Z,70.80
2024-01-16T05:07:25.788Z,70.54
2024-01-16T05:10:15.439Z,70.47
2024-01-16T05:13:01.261Z,70.49
2024-01-16T05:15:46.602Z,70.56
2024-01-16T05:18:33.917Z,70.67
2024-01-16T05:21:21.190Z,70.75
2024-01-16T05:24:06.722Z,70.43
2024-01-16T05:26:52.259Z,70.49
2024-01-16T05:29:43.900Z,70.39
2024-01-16T05:32:33.088Z,70.25
2024-01-16T05:35:19.021Z,70.35
2024-01-16T05:38:05.752Z,70.20
2024-01-16T05:40:51.621Z,70.26
2024-01-16T05:43:37.166Z,70.69
2024-01-16T05:46:22.874Z,70.48
2024-01-16T05:49:08.756Z,70.16
2024-01-16T05:51:54.513Z,70.00
2024-01-16T05:54:39.996Z,70.00
2024-01-16T05:57:25.562Z,69.72
2024-01-16T06:00:11.858Z,70.34
2024-01-16T06:02:57.649Z,70.16
2024-01-16T06:05:43.486Z,70.11
2024-01-16T06:08:29.143Z,69.91
2024-01-16T06:11:15.457Z,70.04
2024-01-16T06:14:01.667Z,70.20
2024-01-16T06:16:47.540Z,69.66
2024-01-16T06:19:33.622Z,69.37
2024-01-16T06:22:19.513Z,69.43
2024-01-16T06:25:07.335Z,69.69
2024-01-16T06:27:52.903Z,69.68
2024-01-16T06:30:38.770Z,69.79
2024-01-16T06:33:24.845Z,69.39
2024-01-16T06:36:10.692Z,69.35
2024-01-16T06:38:56.589Z,69.83
2024-01-16T06:41:42.960Z,69.74
2024-01-16T06:44:28.411Z,69.52
2024-01-16T06:47:13.883Z,69.75
2024-01-16T06:49:59.368Z,69.67
2024-01-16T06:52:45.138Z,69.49
2024-01-16T06:55:30.732Z,69.31
2024-01-16T06:58:16.350Z,69.38
2024-01-16T07:01:02.016Z,69.59
2024-01-16T07:03:47.484Z,69.96
2024-01-16T07:06:33.023Z,69.58
2024-01-16T07:09:21.294Z,69.96
2024-01-16T07:12:07.197Z,69.75
2024-01-16T07:14:53.009Z,69.82
2024-01-16T07:17:38.457Z,69.81
2024-01-16T07:20:24.371Z,70.02
2024-01-16T07:23:09.898Z,69.80
2024-01-16T07:25:55.242Z,70.13
2024-01-16T07:28:40.815Z,69.97
2024-01-16T07:31:27.182Z,70.05
2024-01-16T07:34:13.045Z,70.63
2024-01-16T07:36:58.788Z,70.31
2024-01-16T07:39:44.260Z,70.20
2024-01-16T07:42:35.430Z,70.35
2024-01-16T07:45:21.540Z,70.48
2024-01-16T07:48:07.359Z,70.22
2024-01-16T07:50:53.145Z,70.14
2024-01-16T07:53:39.247Z,70.34
2024-01-16T07:56:25.074Z,70.53
2024-01-16T07:59:10.603Z,70.06
2024-01-16T08:01:55.963Z,70.49
2024-01-16T08:04:41.609Z,70.21
2024-01-16T08:07:28.314Z,70.42
2024-01-16T08:10:15.840Z,70.48
2024-01-16T08:13:02.860Z,70.12
2024-01-16T08:15:48.509Z,70.58
2024-01-16T08:18:34.161Z,70.45
2024-01-16T08:21:19.990Z,69.98
2024-01-16T08:24:05.651Z,70.16
2024-01-16T08:26:51.411Z,70.27
2024-01-16T08:29:36.991Z,70.25
2024-01-16T08:32:22.508Z,70.15
2024-01-16T08:35:08.313Z,70.35
2024-01-16T08:37:53.649Z,70.50
2024-01-16T08:40:39.105Z,70.12
2024-01-16T08:43:24.740Z,70.39
2024-01-16T08:46:10.187Z,70.34
2024-01-16T08:48:56.000Z,69.64
2024-01-16T08:51:42.405Z,69.42
2024-01-16T08:54:28.323Z,70.04
2024-01-16T08:57:18.197Z,69.65
2024-01-16T09:00:08.026Z,69.70
2024-01-16T09:02:53.932Z,69.50
2024-01-16T09:05:40.643Z,70.05
2024-01-16T09:08:27.756Z,70.13
2024-01-16T09:11:13.443Z,69.80
2024-01-16T09:14:00.589Z,69.19
2024-01-16T09:16:46.929Z,69.55
2024-01-16T09:19:32.624Z,69.34
2024-01-16T09:22:18.312Z,69.47
2024-01-16T09:25:04.510Z,69.33
2024-01-16T09:27:50.396Z,69.41
2024-01-16T09:30:36.658Z,69.27
2024-01-16T09:33:22.720Z,69.18
2024-01-16T09:36:08.081Z,69.08
2024-01-16T09:38:53.618Z,69.18
2024-01-16T09:41:39.542Z,68.90
2024-01-16T09:44:24.993Z,68.30
2024-01-16T09:47:12.584Z,68.62
2024-01-16T09:49:58.588Z,68.42
2024-01-16T09:52:46.716Z,67.58
2024-01-16T09:55:32.308Z,67.42
2024-01-16T09:58:24.834Z,68.05
2024-01-16T10:01:13.197Z,67.73
2024-01-16T10:03:59.730Z,68.09
2024-01-16T10:06:50.073Z,67.73
2024-01-16T10:09:35.976Z,67.58
2024-01-16T10:12:21.476Z,67.79
2024-01-16T10:15:11.079Z,67.59
2024-01-16T10:17:57.092Z,67.45
2024-01-16T10:20:42.639Z,67.31
2024-01-16T10:23:34.094Z,67.07
2024-01-16T10:26:22.248Z,67.60
2024-01-16T10:29:08.302Z,67.57
2024-01-16T10:31:54.432Z,67.00
2024-01-16T10:34:40.333Z,67.22
2024-01-16T10:37:26.282Z,67.62
2024-01-16T10:40:15.885Z,67.46
2024-01-16T10:43:02.198Z,67.52
2024-01-16T10:45:47.800Z,67.21
2024-01-16T10:48:33.256Z,67.29
2024-01-16T10:51:19.023Z,66.69
2024-01-16T10:54:07.109Z,67.49
2024-01-16T10:56:53.111Z,66.95
2024-01-16T10:59:57.133Z,67.62
2024-01-16T11:02:50.277Z,67.61
2024-01-16T11:05:38.644Z,67.35
2024-01-16T11:08:30.524Z,67.27
2024-01-16T11:11:17.665Z,67.57
2024-01-16T11:14:07.557Z,67.29
2024-01-16T11:16:54.657Z,67.35
2024-01-16T11:19:49.680Z,66.71
2024-01-16T11:22:46.969Z,66.82
2024-01-16T11:25:34.155Z,66.93
2024-01-16T11:28:21.021Z,66.86
2024-01-16T11:31:35.521Z,67.29
2024-01-16T11:34:43.593Z,66.62
2024-01-16T11:37:32.792Z,66.86
2024-01-16T11:40:18.426Z,66.24
2024-01-16T11:43:35.172Z,66.79
2024-01-16T11:46:20.484Z,66.93
2024-01-16T11:49:06.141Z,66.43
2024-01-16T11:51:51.549Z,66.62
2024-01-16T11:54:37.137Z,66.72
2024-01-16T11:57:48.510Z,66.65
2024-01-16T12:00:36.761Z,67.55
2024-01-16T12:03:31.670Z,67.12
2024-01-16T12:06:20.962Z,66.88
2024-01-16T12:09:14.188Z,66.76
2024-01-16T12:12:04.168Z,66.73
2024-01-16T12:14:56.234Z,66.62
2024-01-16T12:18:02.152Z,66.63
2024-01-16T12:20:48.455Z,66.84
2024-01-16T12:23:35.247Z,66.55
2024-01-16T12:26:24.810Z,66.50
2024-01-16T12:29:11.086Z,66.53
2024-01-16T12:32:12.940Z,66.51
2024-01-16T12:34:59.141Z,66.18
2024-01-16T12:37:44.604Z,66.39
2024-01-16T12:40:30.857Z,66.37
2024-01-16T12:43:20.036Z,66.41
2024-01-16T12:46:07.708Z,66.29
2024-01-16T12:49:00.642Z,66.09
2024-01-16T12:51:51.772Z,66.07
2024-01-16T12:54:37.181Z,65.72
2024-01-16T12:57:22.780Z,65.74
2024-01-16T13:00:25.640Z,65.91
2024-01-16T13:03:20.156Z,66.01
2024-01-16T13:06:05.868Z,66.30
2024-01-16T13:08:51.916Z,66.37
2024-01-16T13:11:47.723Z,66.56
2024-01-16T13:14:33.286Z,66.98
2024-01-16T13:17:21.335Z,66.36
2024-01-16T13:20:11.277Z,66.47
2024-01-16T13:22:56.590Z,66.69
2024-01-16T13:25:49.765Z,66.38
2024-01-16T13:28:35.179Z,66.46
2024-01-16T13:31:20.729Z,66.20
2024-01-16T13:34:06.364Z,66.04
2024-01-16T13:37:09.190Z,66.56
2024-01-16T13:40:04.304Z,66.50
2024-01-16T13:42:50.069Z,66.58
2024-01-16T13:45:39.585Z,66.75
2024-01-16T13:48:26.126Z,66.43
2024-01-16T13:51:11.750Z,66.42
2024-01-16T13:53:58.464Z,66.28
2024-01-16T13:56:58.721Z,66.44
2024-01-16T13:59:52.294Z,66.26
2024-01-16T14:02:39.872Z,66.06
2024-01-16T14:05:27.222Z,66.44
2024-01-16T14:08:15.496Z,66.07
2024-01-16T14:11:01.342Z,66.77
2024-01-16T14:13:46.777Z,66.30
2024-01-16T14:16:42.157Z,66.36
2024-01-16T14:19:37.499Z,66.49
2024-01-16T14:22:23.192Z,66.51
2024-01-16T14:25:12.174Z,66.91
2024-01-16T14:28:04.751Z,66.70
2024-01-16T14:30:52.106Z,66.53
2024-01-16T14:33:37.997Z,66.49
2024-01-16T14:36:23.888Z,66.71
2024-01-16T14:39:19.254Z,66.50
2024-01-16T14:42:05.881Z,66.78
2024-01-16T14:44:51.730Z,66.82
2024-01-16T14:47:37.299Z,66.85
2024-01-16T14:50:23.487Z,66.68
2024-01-16T14:53:09.529Z,67.08
2024-01-16T14:55:55.328Z,66.79
2024-01-16T14:58:40.882Z,67.08
2024-01-16T15:01:26.502Z,67.07
2024-01-16T15:04:13.194Z,66.84
2024-01-16T15:06:59.803Z,67.14
2024-01-16T15:09:45.446Z,66.97
2024-01-16T15:12:31.776Z,66.72
2024-01-16T15:15:17.762Z,67.01
2024-01-16T15:18:03.725Z,66.80
2024-01-16T15:20:49.279Z,66.72
2024-01-16T15:23:38.251Z,66.99
2024-01-16T15:26:23.811Z,67.26
2024-01-16T15:29:11.350Z,67.26
2024-01-16T15:31:57.499Z,66.73
2024-01-16T15:34:43.245Z,66.93
2024-01-16T15:37:29.432Z,66.88
2024-01-16T15:40:17.903Z,67.27
2024-01-16T15:43:05.138Z,67.29
2024-01-16T15:45:51.966Z,67.05
2024-01-16T15:48:38.964Z,67.15
2024-01-16T15:51:24.776Z,67.34
2024-01-16T15:54:12.529Z,67.04
2024-01-16T15:56:59.177Z,67.38
2024-01-16T15:59:45.167Z,67.51
2024-01-16T16:02:30.925Z,67.58
2024-01-16T16:05:16.633Z,67.51
2024-01-16T16:08:02.478Z,67.34
2024-01-16T16:10:48.704Z,67.91
2024-01-16T16:13:34.253Z,67.82
2024-01-16T16:16:19.883Z,67.67
2024-01-16T16:19:05.939Z,67.41
2024-01-16T16:21:52.774Z,67.78
2024-01-16T16:24:38.948Z,67.42
2024-01-16T16:27:26.387Z,67.84
2024-01-16T16:30:12.327Z,67.83
2024-01-16T16:32:58.037Z,68.09
2024-01-16T16:35:45.393Z,68.15
2024-01-16T16:38:31.076Z,68.09
2024-01-16T16:41:17.379Z,67.98
2024-01-16T16:44:03.101Z,68.46
2024-01-16T16:46:48.433Z,68.18
2024-01-16T16:49:34.109Z,68.46
2024-01-16T16:52:19.492Z,68.47
2024-01-16T16:55:05.617Z,68.82
2024-01-16T16:57:51.403Z,68.95
2024-01-16T17:00:38.039Z,68.78
2024-01-16T17:03:24.576Z,69.00
2024-01-16T17:06:10.890Z,69.20
2024-01-16T17:08:56.878Z,69.12
2024-01-16T17:11:42.757Z,69.12
2024-01-16T17:14:28.362Z,69.22
2024-01-16T17:17:13.798Z,69.40
2024-01-16T17:19:59.258Z,69.51
2024-01-16T17:22:44.634Z,69.76
2024-01-16T17:25:30.465Z,69.52
2024-01-16T17:28:16.604Z,69.60
2024-01-16T17:31:03.194Z,69.73
2024-01-16T17:33:48.684Z,69.75
2024-01-16T17:36:34.557Z,69.83
2024-01-16T17:39:22.448Z,69.59
2024-01-16T17:42:08.190Z,69.54
2024-01-16T17:44:54.012Z,69.40
2024-01-16T17:47:39.855Z,69.17
2024-01-16T17:50:25.681Z,69.71
2024-01-16T17:53:12.137Z,69.73
2024-01-16T17:55:57.556Z,69.79
2024-01-16T17:58:44.281Z,70.08
2024-01-16T18:01:30.484Z,70.11
2024-01-16T18:04:16.381Z,70.33
2024-01-16T18:07:02.913Z,70.29
2024-01-16T18:09:48.719Z,70.45
2024-01-16T18:12:34.484Z,70.40
2024-01-16T18:15:20.134Z,70.16
2024-01-16T18:18:08.617Z,70.36
2024-01-16T18:20:55.297Z,70.67
2024-01-16T18:23:42.059Z,70.69
2024-01-16T18:26:30.885Z,70.77
2024-01-16T18:29:21.960Z,70.75
2024-01-16T18:32:08.337Z,70.75
2024-01-16T18:34:53.833Z,70.67
2024-01-16T18:37:40.791Z,70.86
2024-01-16T18:40:27.280Z,70.57
2024-01-16T18:43:12.896Z,70.95
2024-01-16T18:45:59.011Z,71.02
2024-01-16T18:48:45.277Z,70.83
2024-01-16T18:51:31.230Z,70.85
2024-01-16T18:54:18.835Z,71.07
2024-01-16T18:57:04.703Z,71.41
2024-01-16T18:59:50.163Z,71.11
2024-01-16T19:02:35.900Z,70.71
2024-01-16T19:05:23.387Z,71.18
2024-01-16T19:08:09.934Z,71.12
2024-01-16T19:10:56.848Z,71.18
2024-01-16T19:13:44.180Z,71.38
2024-01-16T19:16:30.221Z,71.20
2024-01-16T19:19:16.199Z,71.50
2024-01-16T19:22:01.997Z,71.53
2024-01-16T19:24:48.092Z,71.49
2024-01-16T19:27:33.882Z,71.38
2024-01-16T19:30:22.404Z,71.47
2024-01-16T19:33:09.667Z,71.66
2024-01-16T19:36:00.712Z,71.52
2024-01-16T19:38:46.522Z,71.44
2024-01-16T19:41:32.977Z,71.35
2024-01-16T19:44:18.880Z,71.18
2024-01-16T19:47:05.564Z,71.34
2024-01-16T19:49:51.069Z,71.42
2024-01-16T19:52:37.293Z,71.56
2024-01-16T19:55:25.126Z,71.69
2024-01-16T19:58:13.693Z,71.48
2024-01-16T20:00:59.441Z,71.36
2024-01-16T20:03:45.607Z,71.34
2024-01-16T20:06:31.843Z,71.17
2024-01-16T20:09:19.940Z,71.30
2024-01-16T20:12:06.131Z,71.25
2024-01-16T20:14:51.397Z,70.99
2024-01-16T20:17:37.524Z,71.32
2024-01-16T20:20:22.842Z,71.26
2024-01-16T20:23:09.680Z,71.27
2024-01-16T20:25:55.216Z,71.31
2024-01-16T20:28:40.913Z,71.33
2024-01-16T20:31:26.884Z,71.47
2024-01-16T20:34:13.142Z,71.39
2024-01-16T20:36:59.371Z,71.34
2024-01-16T20:39:45.490Z,71.66
2024-01-16T20:42:31.612Z,71.45
2024-01-16T20:45:17.379Z,72.11
2024-01-16T20:48:03.200Z,71.49
2024-01-16T20:50:48.509Z,71.60
2024-01-16T20:53:34.226Z,72.00
2024-01-16T20:56:20.144Z,71.87
2024-01-16T20:59:05.638Z,71.67
2024-01-16T21:01:52.846Z,71.90
2024-01-16T21:04:38.247Z,71.72
2024-01-16T21:07:25.422Z,71.73
2024-01-16T21:10:11.091Z,72.06
2024-01-16T21:12:56.564Z,71.84
2024-01-16T21:15:42.786Z,72.17
2024-01-16T21:18:32.524Z,71.93
2024-01-16T21:21:18.425Z,71.82
2024-01-16T21:24:05.638Z,71.81
2024-01-16T21:26:51.117Z,72.13
2024-01-16T21:29:36.478Z,72.28
2024-01-16T21:32:22.928Z,71.96
2024-01-16T21:35:11.841Z,72.11
2024-01-16T21:37:57.497Z,72.01
2024-01-16T21:40:43.043Z,71.88
2024-01-16T21:43:28.347Z,72.55
2024-01-16T21:46:14.039Z,72.27
2024-01-16T21:49:00.479Z,72.35
2024-01-16T21:51:46.435Z,72.41
2024-01-16T21:54:33.671Z,72.55
2024-01-16T21:57:19.238Z,72.32
2024-01-16T22:00:05.985Z,72.62
2024-01-16T22:02:58.084Z,72.25
2024-01-16T22:05:44.053Z,72.18
2024-01-16T22:08:30.255Z,72.46
2024-01-16T22:11:15.699Z,72.30
2024-01-16T22:14:01.994Z,72.75
2024-01-16T22:16:48.674Z,72.29
2024-01-16T22:19:34.236Z,72.63
2024-01-16T22:22:19.803Z,72.96
2024-01-16T22:25:06.316Z,72.89
2024-01-16T22:27:52.725Z,72.67
2024-01-16T22:30:38.570Z,72.53
2024-01-16T22:33:24.836Z,72.65
2024-01-16T22:36:11.846Z,72.67
2024-01-16T22:38:57.491Z,72.38
2024-01-16T22:41:45.127Z,72.56
2024-01-16T22:44:31.026Z,72.34
2024-01-16T22:47:16.717Z,72.34
2024-01-16T22:50:05.550Z,72.42
2024-01-16T22:52:54.247Z,72.64
2024-01-16T22:55:39.633Z,72.57
2024-01-16T22:58:25.107Z,72.62
2024-01-16T23:01:10.848Z,72.62
2024-01-16T23:03:58.747Z,72.66
2024-01-16T23:06:44.717Z,72.51
2024-01-16T23:09:30.926Z,72.90
2024-01-16T23:12:16.428Z,72.77
2024-01-16T23:15:02.232Z,73.25
2024-01-16T23:17:48.752Z,73.13
2024-01-16T23:20:34.545Z,73.31
2024-01-16T23:23:21.674Z,73.17
2024-01-16T23:26:07.105Z,72.87
2024-01-16T23:28:52.469Z,73.11
2024-01-16T23:31:38.282Z,73.35
2024-01-16T23:34:24.063Z,73.36
2024-01-16T23:37:09.699Z,73.32
2024-01-16T23:39:55.491Z,72.95
2024-01-16T23:42:42.547Z,72.96
2024-01-16T23:45:33.271Z,72.95
2024-01-16T23:48:19.551Z,72.97
2024-01-16T23:51:05.639Z,73.11
2024-01-16T23:53:51.578Z,73.21
2024-01-16T23:56:37.120Z,72.67
2024-01-16T23:59:22.592Z,73.08
